Weather at Prehn Cranberry Company Airport

Public forecast

Using degrees Fahrenheit for public forecast. Weather courtesy of forecast.io.

Closest aviation weather report (METAR) to Prehn Cranberry Company Airport

Closest report is Volk Field, 7.3 nm (13.4 km) SE. Retrieved 2021/06/25 04:24 UTC (10 minutes ago):

KVOK 250424Z AUTO 14011KT 10SM FEW007 21/19 A2987 RMK AO2 RAE23 SLP113

Closest aviation forecast (TAF) to Prehn Cranberry Company Airport

Closest forecast is Volk Field, 7.3 nm (13.4 km) SE. Retrieved 2021-06-25 01:28 UTC (3 hours ago):

TAF KVOK 250100Z 2501/2607 23009KT 9999 FEW030 SCT045 BKN065 QNH2982INS TEMPO 2501/2503 34040G50KT 6000 TSRAGR BKN020CB BECMG 2505/2506 25009KT 8000 -SHRA BKN005 OVC010 QNH2987INS TEMPO 2506/2511 28020G25KT -TSRA BKN010CB BECMG 2515/2516 04012G18KT 9000 BR BKN015 OVC023 QNH2987INS BECMG 2517/2518 04010G15KT 9999 NSW SCT023 OVC030 QNH2987INS BECMG 2606/2607 VRB06KT 9999 SCT040 QNH2978INS TX26/2520Z TN20/2508Z LAST NO AMDS AFT 2501 NEXT 2509